sensor_id;sensor_type;location;lat;lon;timestamp;pressure;altitude;pressure_sealevel;temperature;humidity
596;BME280;19946;49.306;11.350;2023-12-28T00:01:19;96391.03;;;3.18;100.00
596;BME280;19946;49.306;11.350;2023-12-28T00:04:22;96436.75;;;3.54;100.00
596;BME280;19946;49.306;11.350;2023-12-28T00:07:29;96454.00;;;3.66;100.00
596;BME280;19946;49.306;11.350;2023-12-28T00:10:32;96366.53;;;3.44;100.00
596;BME280;19946;49.306;11.350;2023-12-28T00:13:35;96413.31;;;3.76;100.00
596;BME280;19946;49.306;11.350;2023-12-28T00:16:39;96394.34;;;3.79;100.00
596;BME280;19946;49.306;11.350;2023-12-28T00:19:41;96421.31;;;3.70;100.00
596;BME280;19946;49.306;11.350;2023-12-28T00:22:45;96462.63;;;3.94;100.00
596;BME280;19946;49.306;11.350;2023-12-28T00:25:49;96435.16;;;3.67;100.00
596;BME280;19946;49.306;11.350;2023-12-28T00:28:59;96463.63;;;3.91;100.00
596;BME280;19946;49.306;11.350;2023-12-28T00:32:05;96472.38;;;3.73;100.00
596;BME280;19946;49.306;11.350;2023-12-28T00:35:13;96403.31;;;3.27;100.00
596;BME280;19946;49.306;11.350;2023-12-28T00:38:15;96415.19;;;3.28;100.00
596;BME280;19946;49.306;11.350;2023-12-28T00:41:18;96455.00;;;3.48;100.00
596;BME280;19946;49.306;11.350;2023-12-28T00:44:26;96421.00;;;3.16;100.00
596;BME280;19946;49.306;11.350;2023-12-28T00:47:30;96473.22;;;3.44;100.00
596;BME280;19946;49.306;11.350;2023-12-28T00:50:34;96434.69;;;3.15;100.00
596;BME280;19946;49.306;11.350;2023-12-28T00:53:36;96471.56;;;3.43;100.00
596;BME280;19946;49.306;11.350;2023-12-28T00:56:43;96405.75;;;2.99;100.00
596;BME280;19946;49.306;11.350;2023-12-28T00:59:51;96471.28;;;3.47;100.00
596;BME280;19946;49.306;11.350;2023-12-28T01:02:52;96449.66;;;3.23;100.00
596;BME280;19946;49.306;11.350;2023-12-28T01:05:57;96469.09;;;3.25;100.00
596;BME280;19946;49.306;11.350;2023-12-28T01:09:00;96377.81;;;2.65;100.00
596;BME280;19946;49.306;11.350;2023-12-28T01:12:02;96481.13;;;3.39;100.00
596;BME280;19946;49.306;11.350;2023-12-28T01:15:07;96477.81;;;3.53;100.00
596;BME280;19946;49.306;11.350;2023-12-28T01:18:12;96375.28;;;2.80;100.00
596;BME280;19946;49.306;11.350;2023-12-28T01:21:14;96378.06;;;2.76;100.00
596;BME280;19946;49.306;11.350;2023-12-28T01:24:21;96451.88;;;2.98;100.00
596;BME280;19946;49.306;11.350;2023-12-28T01:27:27;96435.00;;;2.79;100.00
596;BME280;19946;49.306;11.350;2023-12-28T01:30:30;96438.28;;;2.97;100.00
596;BME280;19946;49.306;11.350;2023-12-28T01:33:38;96467.31;;;3.12;100.00
596;BME280;19946;49.306;11.350;2023-12-28T01:36:40;96486.28;;;3.08;100.00
596;BME280;19946;49.306;11.350;2023-12-28T01:39:48;96491.59;;;2.89;100.00
596;BME280;19946;49.306;11.350;2023-12-28T01:42:49;96421.53;;;2.60;100.00
596;BME280;19946;49.306;11.350;2023-12-28T01:45:57;96437.28;;;2.52;100.00
596;BME280;19946;49.306;11.350;2023-12-28T01:49:05;96414.78;;;2.75;100.00
596;BME280;19946;49.306;11.350;2023-12-28T01:52:14;96484.16;;;3.00;100.00
596;BME280;19946;49.306;11.350;2023-12-28T01:55:41;96470.19;;;2.74;100.00
596;BME280;19946;49.306;11.350;2023-12-28T01:59:09;96481.81;;;3.27;100.00
596;BME280;19946;49.306;11.350;2023-12-28T02:02:14;96492.63;;;3.16;100.00
596;BME280;19946;49.306;11.350;2023-12-28T02:05:24;96460.38;;;2.82;100.00
596;BME280;19946;49.306;11.350;2023-12-28T02:08:32;96495.22;;;3.01;100.00
596;BME280;19946;49.306;11.350;2023-12-28T02:11:36;96405.78;;;2.36;100.00
596;BME280;19946;49.306;11.350;2023-12-28T02:14:52;96509.41;;;2.90;100.00
596;BME280;19946;49.306;11.350;2023-12-28T02:18:05;96511.78;;;2.93;100.00
596;BME280;19946;49.306;11.350;2023-12-28T02:21:13;96462.94;;;2.67;100.00
596;BME280;19946;49.306;11.350;2023-12-28T02:24:25;96410.88;;;2.20;100.00
596;BME280;19946;49.306;11.350;2023-12-28T02:27:33;96468.84;;;2.51;100.00
596;BME280;19946;49.306;11.350;2023-12-28T02:30:41;96493.53;;;2.84;100.00
596;BME280;19946;49.306;11.350;2023-12-28T02:33:53;96453.78;;;2.63;100.00
596;BME280;19946;49.306;11.350;2023-12-28T02:37:03;96504.22;;;2.92;100.00
596;BME280;19946;49.306;11.350;2023-12-28T02:40:16;96385.84;;;2.27;100.00
596;BME280;19946;49.306;11.350;2023-12-28T02:43:36;96404.44;;;2.13;100.00
596;BME280;19946;49.306;11.350;2023-12-28T02:46:43;96497.41;;;2.75;100.00
596;BME280;19946;49.306;11.350;2023-12-28T02:49:50;96397.25;;;2.04;100.00
596;BME280;19946;49.306;11.350;2023-12-28T02:52:58;96432.81;;;2.40;100.00
596;BME280;19946;49.306;11.350;2023-12-28T02:56:05;96482.16;;;2.74;100.00
596;BME280;19946;49.306;11.350;2023-12-28T02:59:11;96483.09;;;2.88;100.00
596;BME280;19946;49.306;11.350;2023-12-28T03:02:13;96490.25;;;2.98;100.00
596;BME280;19946;49.306;11.350;2023-12-28T03:05:15;96474.56;;;2.72;100.00
596;BME280;19946;49.306;11.350;2023-12-28T03:08:22;96495.47;;;2.80;100.00
596;BME280;19946;49.306;11.350;2023-12-28T03:11:34;96498.66;;;2.84;100.00
596;BME280;19946;49.306;11.350;2023-12-28T03:14:40;96497.09;;;2.81;100.00
596;BME280;19946;49.306;11.350;2023-12-28T03:17:51;96464.69;;;2.66;100.00
596;BME280;19946;49.306;11.350;2023-12-28T03:21:00;96495.53;;;2.79;100.00
596;BME280;19946;49.306;11.350;2023-12-28T03:24:07;96475.69;;;2.51;100.00
596;BME280;19946;49.306;11.350;2023-12-28T03:27:31;96493.94;;;2.61;100.00
596;BME280;19946;49.306;11.350;2023-12-28T03:30:41;96468.44;;;2.43;100.00
596;BME280;19946;49.306;11.350;2023-12-28T03:33:42;96505.88;;;2.60;100.00
596;BME280;19946;49.306;11.350;2023-12-28T03:36:50;96500.41;;;2.68;100.00
596;BME280;19946;49.306;11.350;2023-12-28T03:39:54;96502.97;;;2.50;100.00
596;BME280;19946;49.306;11.350;2023-12-28T03:43:02;96450.84;;;2.22;100.00
596;BME280;19946;49.306;11.350;2023-12-28T03:46:08;96502.41;;;2.45;100.00
596;BME280;19946;49.306;11.350;2023-12-28T03:49:21;96423.28;;;2.11;100.00
596;BME280;19946;49.306;11.350;2023-12-28T03:52:25;96481.63;;;2.51;100.00
596;BME280;19946;49.306;11.350;2023-12-28T03:55:34;96484.66;;;2.27;100.00
596;BME280;19946;49.306;11.350;2023-12-28T03:58:44;96445.53;;;2.09;100.00
596;BME280;19946;49.306;11.350;2023-12-28T04:01:49;96462.28;;;2.14;100.00
596;BME280;19946;49.306;11.350;2023-12-28T04:05:00;96438.47;;;1.97;100.00
596;BME280;19946;49.306;11.350;2023-12-28T04:08:06;96445.13;;;2.16;100.00
596;BME280;19946;49.306;11.350;2023-12-28T04:11:16;96460.53;;;2.48;100.00
596;BME280;19946;49.306;11.350;2023-12-28T04:14:23;96500.13;;;2.72;100.00
596;BME280;19946;49.306;11.350;2023-12-28T04:17:36;96500.97;;;2.73;100.00
596;BME280;19946;49.306;11.350;2023-12-28T04:20:44;96466.72;;;2.44;100.00
596;BME280;19946;49.306;11.350;2023-12-28T04:23:56;96504.25;;;2.59;100.00
596;BME280;19946;49.306;11.350;2023-12-28T04:27:02;96459.19;;;2.41;100.00
596;BME280;19946;49.306;11.350;2023-12-28T04:30:24;96472.59;;;2.29;100.00
596;BME280;19946;49.306;11.350;2023-12-28T04:33:37;96397.69;;;1.95;100.00
596;BME280;19946;49.306;11.350;2023-12-28T04:36:58;96508.94;;;2.51;100.00
596;BME280;19946;49.306;11.350;2023-12-28T04:40:05;96450.41;;;2.13;100.00
596;BME280;19946;49.306;11.350;2023-12-28T04:43:10;96447.09;;;2.11;100.00
596;BME280;19946;49.306;11.350;2023-12-28T04:46:45;96508.03;;;2.52;100.00
596;BME280;19946;49.306;11.350;2023-12-28T04:49:51;96475.06;;;2.47;100.00
596;BME280;19946;49.306;11.350;2023-12-28T04:53:03;96499.16;;;2.59;100.00
596;BME280;19946;49.306;11.350;2023-12-28T04:56:09;96497.16;;;2.64;100.00
596;BME280;19946;49.306;11.350;2023-12-28T04:59:32;96413.00;;;2.12;100.00
596;BME280;19946;49.306;11.350;2023-12-28T05:02:35;96481.72;;;2.50;100.00
596;BME280;19946;49.306;11.350;2023-12-28T05:05:54;96468.69;;;2.54;100.00
596;BME280;19946;49.306;11.350;2023-12-28T05:09:01;96491.09;;;2.98;100.00
596;BME280;19946;49.306;11.350;2023-12-28T05:12:12;96396.72;;;2.62;100.00
596;BME280;19946;49.306;11.350;2023-12-28T05:15:37;96389.56;;;2.69;100.00
596;BME280;19946;49.306;11.350;2023-12-28T05:18:43;96488.16;;;3.36;100.00
596;BME280;19946;49.306;11.350;2023-12-28T05:21:45;96427.38;;;3.09;100.00
596;BME280;19946;49.306;11.350;2023-12-28T05:24:50;96499.66;;;3.58;100.00
596;BME280;19946;49.306;11.350;2023-12-28T05:27:55;96494.53;;;3.74;100.00
596;BME280;19946;49.306;11.350;2023-12-28T05:31:05;96485.03;;;3.76;100.00
596;BME280;19946;49.306;11.350;2023-12-28T05:34:18;96499.69;;;3.88;100.00
596;BME280;19946;49.306;11.350;2023-12-28T05:37:45;96494.50;;;4.04;100.00
596;BME280;19946;49.306;11.350;2023-12-28T05:41:01;96507.31;;;4.04;100.00
596;BME280;19946;49.306;11.350;2023-12-28T05:44:07;96458.69;;;3.58;100.00
596;BME280;19946;49.306;11.350;2023-12-28T05:47:21;96454.53;;;3.72;100.00
596;BME280;19946;49.306;11.350;2023-12-28T05:50:24;96514.41;;;4.29;100.00
596;BME280;19946;49.306;11.350;2023-12-28T05:53:26;96501.47;;;4.45;100.00
596;BME280;19946;49.306;11.350;2023-12-28T05:56:37;96420.41;;;3.71;100.00
596;BME280;19946;49.306;11.350;2023-12-28T05:59:41;96508.91;;;4.35;100.00
596;BME280;19946;49.306;11.350;2023-12-28T06:02:47;96525.19;;;4.34;100.00
596;BME280;19946;49.306;11.350;2023-12-28T06:06:31;96467.00;;;3.78;100.00
596;BME280;19946;49.306;11.350;2023-12-28T06:09:38;96475.72;;;3.89;100.00
596;BME280;19946;49.306;11.350;2023-12-28T06:13:02;96463.25;;;3.83;100.00
596;BME280;19946;49.306;11.350;2023-12-28T06:16:15;96491.91;;;3.90;100.00
596;BME280;19946;49.306;11.350;2023-12-28T06:19:33;96480.97;;;3.72;100.00
596;BME280;19946;49.306;11.350;2023-12-28T06:22:38;96482.88;;;3.68;100.00
596;BME280;19946;49.306;11.350;2023-12-28T06:25:46;96559.75;;;3.98;100.00
596;BME280;19946;49.306;11.350;2023-12-28T06:28:50;96502.53;;;3.68;100.00
596;BME280;19946;49.306;11.350;2023-12-28T06:31:57;96559.50;;;4.17;100.00
596;BME280;19946;49.306;11.350;2023-12-28T06:35:18;96554.09;;;4.08;100.00
596;BME280;19946;49.306;11.350;2023-12-28T06:38:32;96452.47;;;3.48;100.00
596;BME280;19946;49.306;11.350;2023-12-28T06:41:44;96455.00;;;3.48;100.00
596;BME280;19946;49.306;11.350;2023-12-28T06:45:01;96550.53;;;4.10;100.00
596;BME280;19946;49.306;11.350;2023-12-28T06:48:05;96555.34;;;4.00;100.00
596;BME280;19946;49.306;11.350;2023-12-28T06:51:31;96578.38;;;4.00;100.00
596;BME280;19946;49.306;11.350;2023-12-28T06:54:44;96577.94;;;3.94;100.00
596;BME280;19946;49.306;11.350;2023-12-28T06:57:53;96550.78;;;3.76;100.00
596;BME280;19946;49.306;11.350;2023-12-28T07:01:04;96493.19;;;3.37;100.00
596;BME280;19946;49.306;11.350;2023-12-28T07:04:31;96538.81;;;3.60;100.00
596;BME280;19946;49.306;11.350;2023-12-28T07:08:10;96536.53;;;3.56;100.00
596;BME280;19946;49.306;11.350;2023-12-28T07:12:08;96514.47;;;3.53;100.00
596;BME280;19946;49.306;11.350;2023-12-28T07:19:27;96580.50;;;3.94;100.00
596;BME280;19946;49.306;11.350;2023-12-28T07:22:42;96481.81;;;3.43;100.00
596;BME280;19946;49.306;11.350;2023-12-28T07:25:48;96584.63;;;3.96;100.00
596;BME280;19946;49.306;11.350;2023-12-28T07:28:55;96547.13;;;3.80;100.00
596;BME280;19946;49.306;11.350;2023-12-28T07:32:08;96491.88;;;3.46;100.00
596;BME280;19946;49.306;11.350;2023-12-28T07:35:17;96477.31;;;3.46;100.00
596;BME280;19946;49.306;11.350;2023-12-28T07:38:28;96487.84;;;3.72;100.00
596;BME280;19946;49.306;11.350;2023-12-28T07:42:13;96550.94;;;4.02;100.00
596;BME280;19946;49.306;11.350;2023-12-28T07:45:29;96530.31;;;3.90;100.00
596;BME280;19946;49.306;11.350;2023-12-28T07:48:59;96593.25;;;4.39;100.00
596;BME280;19946;49.306;11.350;2023-12-28T07:52:05;96583.84;;;4.54;100.00
596;BME280;19946;49.306;11.350;2023-12-28T07:55:10;96507.69;;;3.98;100.00
596;BME280;19946;49.306;11.350;2023-12-28T07:58:16;96510.25;;;4.12;100.00
596;BME280;19946;49.306;11.350;2023-12-28T08:01:21;96535.06;;;4.26;100.00
596;BME280;19946;49.306;11.350;2023-12-28T08:04:32;96528.84;;;4.16;100.00
596;BME280;19946;49.306;11.350;2023-12-28T08:07:49;96554.41;;;4.46;100.00
596;BME280;19946;49.306;11.350;2023-12-28T08:11:19;96555.25;;;4.46;100.00
596;BME280;19946;49.306;11.350;2023-12-28T08:14:50;96601.00;;;4.82;100.00
596;BME280;19946;49.306;11.350;2023-12-28T08:18:05;96597.78;;;4.93;100.00
596;BME280;19946;49.306;11.350;2023-12-28T08:21:13;96620.63;;;4.97;100.00
596;BME280;19946;49.306;11.350;2023-12-28T08:24:21;96561.84;;;4.50;100.00
596;BME280;19946;49.306;11.350;2023-12-28T08:27:35;96603.66;;;4.95;100.00
596;BME280;19946;49.306;11.350;2023-12-28T08:30:40;96580.81;;;4.76;100.00
596;BME280;19946;49.306;11.350;2023-12-28T08:33:51;96556.09;;;4.75;100.00
596;BME280;19946;49.306;11.350;2023-12-28T08:36:56;96566.53;;;4.72;100.00
596;BME280;19946;49.306;11.350;2023-12-28T08:40:06;96581.00;;;4.87;100.00
596;BME280;19946;49.306;11.350;2023-12-28T08:43:23;96573.13;;;4.90;100.00
596;BME280;19946;49.306;11.350;2023-12-28T08:46:26;96580.91;;;5.03;100.00
596;BME280;19946;49.306;11.350;2023-12-28T08:49:28;96606.19;;;5.23;100.00
596;BME280;19946;49.306;11.350;2023-12-28T08:52:41;96502.16;;;4.62;100.00
596;BME280;19946;49.306;11.350;2023-12-28T08:55:44;96509.09;;;4.74;100.00
596;BME280;19946;49.306;11.350;2023-12-28T08:58:47;96622.22;;;5.41;100.00
596;BME280;19946;49.306;11.350;2023-12-28T09:01:58;96563.13;;;5.00;100.00
596;BME280;19946;49.306;11.350;2023-12-28T09:05:13;96611.69;;;5.31;100.00
596;BME280;19946;49.306;11.350;2023-12-28T09:08:50;96622.81;;;5.18;100.00
596;BME280;19946;49.306;11.350;2023-12-28T09:11:55;96565.59;;;4.87;100.00
596;BME280;19946;49.306;11.350;2023-12-28T09:15:00;96595.13;;;4.94;100.00
596;BME280;19946;49.306;11.350;2023-12-28T09:18:03;96555.91;;;4.78;100.00
596;BME280;19946;49.306;11.350;2023-12-28T09:21:24;96562.25;;;4.87;100.00
596;BME280;19946;49.306;11.350;2023-12-28T09:24:59;96602.63;;;5.26;100.00
596;BME280;19946;49.306;11.350;2023-12-28T09:28:04;96537.84;;;4.94;100.00
596;BME280;19946;49.306;11.350;2023-12-28T09:31:06;96540.59;;;5.05;100.00
596;BME280;19946;49.306;11.350;2023-12-28T09:34:12;96512.84;;;4.83;100.00
596;BME280;19946;49.306;11.350;2023-12-28T09:37:19;96594.78;;;5.41;100.00
596;BME280;19946;49.306;11.350;2023-12-28T09:40:25;96608.84;;;5.50;100.00
596;BME280;19946;49.306;11.350;2023-12-28T09:43:37;96611.25;;;5.66;100.00
596;BME280;19946;49.306;11.350;2023-12-28T09:46:44;96610.19;;;5.56;100.00
596;BME280;19946;49.306;11.350;2023-12-28T09:49:52;96561.16;;;5.32;100.00
596;BME280;19946;49.306;11.350;2023-12-28T09:53:25;96610.22;;;5.82;100.00
596;BME280;19946;49.306;11.350;2023-12-28T09:56:32;96615.53;;;5.94;100.00
596;BME280;19946;49.306;11.350;2023-12-28T09:59:43;96611.00;;;5.97;100.00
596;BME280;19946;49.306;11.350;2023-12-28T10:02:50;96618.53;;;6.00;100.00
596;BME280;19946;49.306;11.350;2023-12-28T10:05:56;96611.81;;;5.98;100.00
596;BME280;19946;49.306;11.350;2023-12-28T10:09:00;96598.97;;;5.98;100.00
596;BME280;19946;49.306;11.350;2023-12-28T10:12:08;96575.88;;;5.83;100.00
596;BME280;19946;49.306;11.350;2023-12-28T10:15:15;96594.88;;;6.08;100.00
596;BME280;19946;49.306;11.350;2023-12-28T10:18:20;96598.84;;;6.13;100.00
596;BME280;19946;49.306;11.350;2023-12-28T10:21:28;96536.38;;;5.72;100.00
596;BME280;19946;49.306;11.350;2023-12-28T10:24:42;96584.19;;;6.01;100.00
596;BME280;19946;49.306;11.350;2023-12-28T10:27:45;96594.06;;;6.07;100.00
596;BME280;19946;49.306;11.350;2023-12-28T10:30:54;96511.50;;;5.72;100.00
596;BME280;19946;49.306;11.350;2023-12-28T10:34:01;96535.31;;;5.89;100.00
596;BME280;19946;49.306;11.350;2023-12-28T10:37:14;96506.56;;;5.69;100.00
596;BME280;19946;49.306;11.350;2023-12-28T10:40:21;96559.69;;;6.35;100.00
596;BME280;19946;49.306;11.350;2023-12-28T10:43:28;96532.59;;;6.30;100.00
596;BME280;19946;49.306;11.350;2023-12-28T10:46:34;96519.34;;;6.23;100.00
596;BME280;19946;49.306;11.350;2023-12-28T10:49:42;96556.59;;;6.55;100.00
596;BME280;19946;49.306;11.350;2023-12-28T10:52:53;96478.91;;;6.12;100.00
596;BME280;19946;49.306;11.350;2023-12-28T11:00:26;96551.13;;;6.98;100.00
596;BME280;19946;49.306;11.350;2023-12-28T11:03:26;96525.56;;;6.95;100.00
596;BME280;19946;49.306;11.350;2023-12-28T11:06:33;96541.03;;;6.95;100.00
596;BME280;19946;49.306;11.350;2023-12-28T11:09:41;96514.50;;;6.69;100.00
596;BME280;19946;49.306;11.350;2023-12-28T11:12:46;96536.94;;;6.80;100.00
596;BME280;19946;49.306;11.350;2023-12-28T11:15:58;96547.94;;;6.82;100.00
596;BME280;19946;49.306;11.350;2023-12-28T11:19:03;96519.34;;;6.61;100.00
596;BME280;19946;49.306;11.350;2023-12-28T11:22:23;96471.31;;;6.36;100.00
596;BME280;19946;49.306;11.350;2023-12-28T11:25:34;96554.44;;;6.75;100.00
596;BME280;19946;49.306;11.350;2023-12-28T11:29:11;96494.22;;;6.77;100.00
596;BME280;19946;49.306;11.350;2023-12-28T11:32:27;96521.78;;;6.88;100.00
596;BME280;19946;49.306;11.350;2023-12-28T11:35:39;96545.16;;;6.97;100.00
596;BME280;19946;49.306;11.350;2023-12-28T11:38:53;96485.84;;;6.86;100.00
596;BME280;19946;49.306;11.350;2023-12-28T11:42:08;96537.97;;;7.26;100.00
596;BME280;19946;49.306;11.350;2023-12-28T11:45:17;96511.84;;;7.07;100.00
596;BME280;19946;49.306;11.350;2023-12-28T11:48:35;96510.56;;;6.89;100.00
596;BME280;19946;49.306;11.350;2023-12-28T11:51:39;96490.09;;;6.75;100.00
596;BME280;19946;49.306;11.350;2023-12-28T11:54:51;96528.34;;;7.05;100.00
596;BME280;19946;49.306;11.350;2023-12-28T11:57:57;96545.03;;;7.12;100.00
596;BME280;19946;49.306;11.350;2023-12-28T12:00:58;96522.16;;;7.07;100.00
596;BME280;19946;49.306;11.350;2023-12-28T12:04:01;96516.88;;;7.21;100.00
596;BME280;19946;49.306;11.350;2023-12-28T12:07:04;96515.44;;;7.17;100.00
596;BME280;19946;49.306;11.350;2023-12-28T12:10:15;96496.66;;;7.28;100.00
596;BME280;19946;49.306;11.350;2023-12-28T12:13:22;96499.63;;;7.35;100.00
596;BME280;19946;49.306;11.350;2023-12-28T12:16:29;96502.41;;;7.31;100.00
596;BME280;19946;49.306;11.350;2023-12-28T12:19:55;96485.84;;;7.47;100.00
596;BME280;19946;49.306;11.350;2023-12-28T12:23:24;96462.25;;;7.29;100.00
596;BME280;19946;49.306;11.350;2023-12-28T12:26:30;96515.63;;;7.51;100.00
596;BME280;19946;49.306;11.350;2023-12-28T12:29:56;96458.72;;;7.06;100.00
596;BME280;19946;49.306;11.350;2023-12-28T12:33:22;96509.56;;;7.52;100.00
596;BME280;19946;49.306;11.350;2023-12-28T12:36:24;96511.34;;;7.62;100.00
596;BME280;19946;49.306;11.350;2023-12-28T12:39:26;96457.69;;;7.32;100.00
596;BME280;19946;49.306;11.350;2023-12-28T12:42:42;96418.81;;;7.24;100.00
596;BME280;19946;49.306;11.350;2023-12-28T12:45:43;96493.59;;;7.70;100.00
596;BME280;19946;49.306;11.350;2023-12-28T12:48:59;96493.38;;;7.74;100.00
596;BME280;19946;49.306;11.350;2023-12-28T12:52:02;96501.88;;;7.63;100.00
596;BME280;19946;49.306;11.350;2023-12-28T12:55:03;96511.72;;;7.69;100.00
596;BME280;19946;49.306;11.350;2023-12-28T12:58:05;96497.81;;;7.48;100.00
596;BME280;19946;49.306;11.350;2023-12-28T13:01:10;96492.28;;;7.41;100.00
596;BME280;19946;49.306;11.350;2023-12-28T13:04:17;96460.50;;;7.29;100.00
596;BME280;19946;49.306;11.350;2023-12-28T13:07:23;96505.84;;;7.56;100.00
596;BME280;19946;49.306;11.350;2023-12-28T13:14:12;96474.41;;;7.51;100.00
596;BME280;19946;49.306;11.350;2023-12-28T13:17:17;96428.50;;;7.45;100.00
596;BME280;19946;49.306;11.350;2023-12-28T13:20:21;96443.53;;;7.62;100.00
596;BME280;19946;49.306;11.350;2023-12-28T13:23:25;96488.81;;;7.77;100.00
596;BME280;19946;49.306;11.350;2023-12-28T13:26:32;96490.13;;;7.59;100.00
596;BME280;19946;49.306;11.350;2023-12-28T13:29:34;96422.94;;;7.14;100.00
596;BME280;19946;49.306;11.350;2023-12-28T13:32:45;96455.53;;;7.50;100.00
596;BME280;19946;49.306;11.350;2023-12-28T13:35:54;96495.34;;;7.70;100.00
596;BME280;19946;49.306;11.350;2023-12-28T13:38:56;96453.13;;;7.36;100.00
596;BME280;19946;49.306;11.350;2023-12-28T13:41:57;96458.59;;;7.44;100.00
596;BME280;19946;49.306;11.350;2023-12-28T13:45:02;96446.06;;;7.27;100.00
596;BME280;19946;49.306;11.350;2023-12-28T13:48:05;96457.97;;;7.17;100.00
596;BME280;19946;49.306;11.350;2023-12-28T13:51:12;96431.25;;;6.94;100.00
596;BME280;19946;49.306;11.350;2023-12-28T13:54:21;96437.94;;;6.96;100.00
596;BME280;19946;49.306;11.350;2023-12-28T13:57:41;96482.50;;;7.10;100.00
596;BME280;19946;49.306;11.350;2023-12-28T14:01:00;96491.84;;;7.23;100.00
596;BME280;19946;49.306;11.350;2023-12-28T14:04:55;96499.56;;;7.23;100.00
596;BME280;19946;49.306;11.350;2023-12-28T14:08:52;96511.28;;;7.27;100.00
596;BME280;19946;49.306;11.350;2023-12-28T14:11:55;96444.78;;;6.85;100.00
596;BME280;19946;49.306;11.350;2023-12-28T14:15:18;96499.56;;;7.47;100.00
596;BME280;19946;49.306;11.350;2023-12-28T14:18:20;96477.69;;;7.29;100.00
596;BME280;19946;49.306;11.350;2023-12-28T14:21:26;96456.94;;;7.19;100.00
596;BME280;19946;49.306;11.350;2023-12-28T14:24:42;96507.97;;;7.62;100.00
596;BME280;19946;49.306;11.350;2023-12-28T14:27:44;96505.50;;;7.60;100.00
596;BME280;19946;49.306;11.350;2023-12-28T14:31:21;96489.66;;;7.54;100.00
596;BME280;19946;49.306;11.350;2023-12-28T14:34:33;96457.13;;;7.16;100.00
596;BME280;19946;49.306;11.350;2023-12-28T14:38:11;96511.41;;;7.50;100.00
596;BME280;19946;49.306;11.350;2023-12-28T14:41:54;96463.81;;;7.19;100.00
596;BME280;19946;49.306;11.350;2023-12-28T14:45:11;96480.66;;;7.36;100.00
596;BME280;19946;49.306;11.350;2023-12-28T14:48:25;96483.22;;;7.36;100.00
596;BME280;19946;49.306;11.350;2023-12-28T14:51:54;96479.84;;;7.35;100.00
596;BME280;19946;49.306;11.350;2023-12-28T14:54:55;96433.19;;;7.03;100.00
596;BME280;19946;49.306;11.350;2023-12-28T15:02:28;96498.97;;;7.44;100.00
596;BME280;19946;49.306;11.350;2023-12-28T15:06:19;96518.41;;;7.48;100.00
596;BME280;19946;49.306;11.350;2023-12-28T15:10:15;96444.00;;;7.08;100.00
596;BME280;19946;49.306;11.350;2023-12-28T15:13:21;96486.47;;;7.26;100.00
596;BME280;19946;49.306;11.350;2023-12-28T15:16:40;96445.78;;;6.95;100.00
596;BME280;19946;49.306;11.350;2023-12-28T15:19:43;96492.97;;;7.19;100.00
596;BME280;19946;49.306;11.350;2023-12-28T15:22:53;96508.88;;;7.13;100.00
596;BME280;19946;49.306;11.350;2023-12-28T15:26:36;96491.59;;;7.03;100.00
596;BME280;19946;49.306;11.350;2023-12-28T15:34:42;96442.00;;;6.88;100.00
596;BME280;19946;49.306;11.350;2023-12-28T15:38:33;96453.28;;;6.98;100.00
596;BME280;19946;49.306;11.350;2023-12-28T15:42:37;96497.47;;;7.28;100.00
596;BME280;19946;49.306;11.350;2023-12-28T15:45:45;96457.31;;;7.02;100.00
596;BME280;19946;49.306;11.350;2023-12-28T15:48:52;96446.78;;;7.05;100.00
596;BME280;19946;49.306;11.350;2023-12-28T15:52:14;96466.41;;;7.19;100.00
596;BME280;19946;49.306;11.350;2023-12-28T15:55:51;96498.09;;;7.32;100.00
596;BME280;19946;49.306;11.350;2023-12-28T15:58:54;96470.00;;;7.16;100.00
596;BME280;19946;49.306;11.350;2023-12-28T16:01:58;96471.81;;;7.27;100.00
596;BME280;19946;49.306;11.350;2023-12-28T16:05:13;96452.31;;;7.12;100.00
596;BME280;19946;49.306;11.350;2023-12-28T16:08:52;96436.53;;;7.16;100.00
596;BME280;19946;49.306;11.350;2023-12-28T16:12:18;96422.94;;;7.14;100.00
596;BME280;19946;49.306;11.350;2023-12-28T16:15:19;96427.50;;;7.11;100.00
596;BME280;19946;49.306;11.350;2023-12-28T16:18:41;96455.91;;;7.46;100.00
596;BME280;19946;49.306;11.350;2023-12-28T16:22:11;96459.34;;;7.33;100.00
596;BME280;19946;49.306;11.350;2023-12-28T16:25:54;96394.66;;;6.78;100.00
596;BME280;19946;49.306;11.350;2023-12-28T16:29:09;96442.06;;;6.99;100.00
596;BME280;19946;49.306;11.350;2023-12-28T16:32:38;96399.84;;;6.65;100.00
596;BME280;19946;49.306;11.350;2023-12-28T16:36:00;96434.81;;;6.80;100.00
596;BME280;19946;49.306;11.350;2023-12-28T16:39:12;96471.53;;;6.95;100.00
596;BME280;19946;49.306;11.350;2023-12-28T16:42:28;96406.31;;;6.71;100.00
596;BME280;19946;49.306;11.350;2023-12-28T16:45:42;96421.41;;;6.88;100.00
596;BME280;19946;49.306;11.350;2023-12-28T16:49:41;96412.16;;;6.73;100.00
596;BME280;19946;49.306;11.350;2023-12-28T16:53:00;96452.31;;;7.12;100.00
596;BME280;19946;49.306;11.350;2023-12-28T16:56:23;96461.00;;;6.98;100.00
596;BME280;19946;49.306;11.350;2023-12-28T16:59:42;96434.44;;;6.97;100.00
596;BME280;19946;49.306;11.350;2023-12-28T17:02:54;96434.75;;;6.93;100.00
596;BME280;19946;49.306;11.350;2023-12-28T17:07:11;96449.13;;;7.08;100.00
596;BME280;19946;49.306;11.350;2023-12-28T17:10:43;96425.56;;;6.78;100.00
596;BME280;19946;49.306;11.350;2023-12-28T17:13:51;96402.63;;;6.62;100.00
596;BME280;19946;49.306;11.350;2023-12-28T17:17:19;96423.28;;;6.73;100.00
596;BME280;19946;49.306;11.350;2023-12-28T17:20:23;96402.88;;;6.46;100.00
596;BME280;19946;49.306;11.350;2023-12-28T17:23:36;96402.16;;;6.44;100.00
596;BME280;19946;49.306;11.350;2023-12-28T17:27:11;96408.13;;;6.32;100.00
596;BME280;19946;49.306;11.350;2023-12-28T17:30:28;96404.84;;;6.30;100.00
596;BME280;19946;49.306;11.350;2023-12-28T17:33:40;96396.31;;;6.30;100.00